^^

Nearby METAR Reports

 

KBJC - Broomfield, Colorado
Distance from station: ESE 4mi, 6km
Updated: 11/17/2018 12:45pm
NOT Current
Mist, Overcast
Mist, Overcast
 Wind from NE
Wind: NE 6 mph , 9 km/h
Temperature: 25°F , -4°C
Wind Chill: 18°F , -8°C
Dew Point: 25°F , -4°C
Humidity: 100%
Barometer: 1022.7 hPa
Summary: Mist
Clouds: Overcast
Visibility: 3 miles , 5 km
Cloud details: Overcast 500 ft
2018/11/17 19:45 KBJC 171945Z 04005KT 3SM BR OVC005 M04/M04 A3020
KBDU - Boulder, Colorado
Distance from station: NNW 8mi, 13km
Updated: 11/17/2018 1:53pm
Light snow, Overcast
Light snow, Overcast
 Wind from ENE
Wind: ENE 7 mph , 11 km/h
Temperature: 27°F , -3°C
Wind Chill: 19°F , -7°C
Dew Point: 23°F , -5°C
Humidity: 86%
Barometer: 1022.7 hPa
Summary: Light Snow
Clouds: Overcast
Visibility: 10 miles , 16 km
Cloud details: Overcast 1000 ft
2018/11/17 20:53 KBDU 172053Z AUTO 07006KT 10SM -SN OVC010 M03/M05 A3020 RMK AO2 P0001
KEIK - Erie, Colorado
Distance from station: NE 8mi, 14km
Updated: 11/17/2018 1:52pm
Overcast
Overcast
 Wind from ENE
Wind: ENE 9 mph , 15 km/h
Temperature: 25°F , -4°C
Wind Chill: 16°F , -9°C
Dew Point: 23°F , -5°C
Humidity: 93%
Barometer: 1025.1 hPa
Clouds: Overcast
Visibility: 10 miles , 16 km
Cloud details: Overcast 1100 ft
2018/11/17 20:52 KEIK 172052Z AUTO 07008KT 10SM OVC011 M04/M05 A3027 RMK AO2 T10391050
 
KLMO - Longmont, Colorado
Distance from station: N 17mi, 27km
Updated: 11/17/2018 1:55pm
Overcast
Overcast
 Wind from E
Wind: E 7 mph , 11 km/h
Temperature: 28°F , -2°C
Wind Chill: 21°F , -6°C
Dew Point: 23°F , -5°C
Humidity: 80%
Barometer: 1024 hPa
Clouds: Overcast
Visibility: 10 miles , 16 km
Cloud details: Overcast 1400 ft
2018/11/17 20:55 KLMO 172055Z AUTO 09006KT 10SM OVC014 M02/M05 A3024 RMK AO2 T10221050
KDEN - Denver (DIA), Colorado
Distance from station: E 27mi, 44km
Updated: 11/17/2018 1:53pm
Light freezing, Drizzle, Snow, Mist, Overcast
Light freezing, Drizzle, Snow, Mist, Overcast
 Wind from NE
Wind: NE 15 mph , 24 km/h
Temperature: 21°F , -6°C
Wind Chill: 7°F , -14°C
Dew Point: 21°F , -6°C
Humidity: 100%
Barometer: 1022.7 hPa
Summary: Light freezing, Drizzle, Snow, Mist
Clouds: Overcast
Visibility: 1 1/2 miles , 2.4 km
Cloud details: Overcast 600 ft
2018/11/17 20:53 KDEN 172053Z 04013KT 1 1/2SM -FZDZSN BR OVC006 M06/M06 A3020 RMK AO2 SFC VIS 2 SLP250 P0000 60001 I1000 I3000 T10561061 51001 $
KFNL - Ft Collins, Colorado
Distance from station: N 37mi, 59km
Updated: 11/17/2018 1:56pm
Light snow, Overcast
Light snow, Overcast
 Wind from E
Wind: E 13 mph , 20 km/h
Temperature: 25°F , -4°C
Wind Chill: 13°F , -11°C
Dew Point: 21°F , -6°C
Humidity: 86%
Barometer: 1024 hPa
Summary: Light Snow
Clouds: Overcast
Visibility: 9 miles , 14 km
Cloud details: Overcast 900 ft
2018/11/17 20:56 KFNL 172056Z AUTO 09011KT 9SM -SN OVC009 M04/M06 A3024 RMK AO2 SLP260 6//// T10391056 56010 FZRANO PNO $
 
KGXY - Greeley, Colorado
Distance from station: NE 44mi, 71km
Updated: 11/17/2018 1:56pm
Overcast
Overcast
 Wind from E
Wind: E 13 mph , 20 km/h
Temperature: 25°F , -4°C
Wind Chill: 13°F , -11°C
Dew Point: 21°F , -6°C
Humidity: 86%
Barometer: 1025.1 hPa
Clouds: Overcast
Visibility: 9 miles , 14 km
Cloud details: Mostly cloudy 700 ft
Overcast 1300 ft
2018/11/17 20:56 KGXY 172056Z AUTO 10011KT 9SM BKN007 OVC013 M04/M06 A3027 RMK AO2 UPE1958B48E53SNB1958E18B35E48 CIG 006V010 SLP287 P0000 60000 T10441061 56011 FZRANO
KSBS - Steamboat Springs, Colorado
Distance from station: N 99mi, 159km
Updated: 11/17/2018 1:55pm
Overcast
Overcast
 Wind from calm
Wind: Calm
Temperature: 32°F , 0°C
Dew Point: 30°F , -1°C
Humidity: 93%
Barometer: 1018.3 hPa
Clouds: Overcast
Visibility: 2 1/2 miles , 4 km
Cloud details: Partly cloudy 600 ft
Mostly cloudy 1300 ft
Overcast 2500 ft
2018/11/17 20:55 KSBS 172055Z AUTO 00000KT 2 1/2SM SCT006 BKN013 OVC025 00/M01 A3007 RMK AO1 VIS 1 1/2V5 T00001006
KEGE - Eagle Co. Region, Colorado
Distance from station: SW 96mi, 154km
Updated: 11/17/2018 1:56pm
Mostly cloudy
Mostly cloudy
 Wind from W
Wind: W 12 mph , 19 km/h
Temperature: 50°F , 10°C
Wind Chill: 45°F , 7°C
Dew Point: 14°F , -10°C
Humidity: 24%
Barometer: 1016.3 hPa
Clouds: Mostly cloudy
Visibility: 10 miles , 16 km
Cloud details: Mostly cloudy 10000 ft
2018/11/17 20:56 KEGE 172056Z 26010KT 10SM BKN100 10/M10 A3001 RMK AO2 SLP177 T01001100 55020
 
KGJT - Grand Junction, Colorado
Distance from station: WSW 187mi, 302km
Updated: 11/17/2018 1:53pm
Clear
Clear
 Wind from WNW
Wind: WNW 8 mph , 13 km/h
Temperature: 50°F , 10°C
Wind Chill: 47°F , 8°C
Dew Point: 19°F , -7°C
Humidity: 30%
Barometer: 1016.3 hPa
Clouds: Clear
Visibility: 10 miles , 16 km
2018/11/17 20:53 KGJT 172053Z 29007KT 10SM CLR 10/M07 A3001 RMK AO2 SLP155 T01001072 56021 $
KDRO - Durango, Colorado
Distance from station: SW 238mi, 383km
Updated: 11/17/2018 1:53pm
Clear
Clear
 Wind from WSW
Wind: WSW 14 mph , 22 km/h
Temperature: 54°F , 12°C
Dew Point: 18°F , -8°C
Humidity: 24%
Barometer: 1017.3 hPa
Clouds: Clear
Visibility: 10 miles , 16 km
2018/11/17 20:53 KDRO 172053Z AUTO 24012KT 10SM CLR 12/M08 A3004 RMK AO2 SLP169 T01171083 56023
KCYS - Cheyenne, Wyoming
Distance from station: N 86mi, 139km
Updated: 11/17/2018 1:53pm
Light snow, Mist, Overcast
Light snow, Mist, Overcast
 Wind from E
Wind: E 8 mph , 13 km/h
Temperature: 18°F , -8°C
Wind Chill: 8°F , -13°C
Dew Point: 16°F , -9°C
Humidity: 93%
Barometer: 1022 hPa
Summary: Light snow, Mist
Clouds: Overcast
Visibility: 3/4 mile , 1.2 km
Cloud details: Few Clouds 700 ft
Partly cloudy 1100 ft
Overcast 1600 ft
2018/11/17 20:53 KCYS 172053Z 10007KT 3/4SM -SN BR FEW007 SCT011 OVC016 M08/M09 A3018 RMK AO2 SLP272 P0002 60004 T10781089 56012 RVRNO
 
KCOS - Colorado Springs, Colorado
Distance from station: S 74mi, 120km
Updated: 11/17/2018 1:54pm
Light freezing, Rain, Snow, Mist, Overcast
Light freezing, Rain, Snow, Mist, Overcast
 Wind from ESE
Wind: ESE 12 mph , 19 km/h
Temperature: 28°F , -2°C
Wind Chill: 18°F , -8°C
Dew Point: 27°F , -3°C
Humidity: 93%
Barometer: 1020.3 hPa
Summary: Light freezing, Rain, Snow, Mist
Clouds: Overcast
Visibility: 1/4 mile , 0.4 km
Cloud details: Overcast 300 ft
2018/11/17 20:54 KCOS 172054Z 11010KT 1/4SM R17L/P6000FT -FZRASN BR VV003 M02/M03 A3013 RMK AO2 SFC VIS 1 SLP236 P0001 60001 I1000 I3000 T10171028 56012 $
KPUB - Pueblo, Colorado
Distance from station: S 119mi, 192km
Updated: 11/17/2018 1:53pm
Light freezing, Rain, Mist, Overcast
Light freezing, Rain, Mist, Overcast
 Wind from E
Wind: E 18 mph , 30 km/h
Temperature: 30°F , -1°C
Wind Chill: 18°F , -8°C
Dew Point: 28°F , -2°C
Humidity: 93%
Barometer: 1021.7 hPa
Summary: Light freezing, Rain, Mist
Clouds: Overcast
Visibility: 2 1/2 miles , 4 km
Cloud details: Overcast 600 ft
2018/11/17 20:53 KPUB 172053Z 10016KT 2 1/2SM -FZRA BR OVC006 M01/M02 A3017 RMK AO2 RAB1958E34UPB34E46FZRAB46 SLP227 P0000 60000 I1001 I3001 T10061017 55003
KLAA - Lamar, Colorado
Distance from station: ESE 184mi, 297km
Updated: 11/17/2018 1:53pm
Overcast
Overcast
 Wind from NE
Wind: NE 16 mph , 26 km/h
Temperature: 28°F , -2°C
Wind Chill: 16°F , -9°C
Dew Point: 23°F , -5°C
Humidity: 80%
Barometer: 1023.4 hPa
Clouds: Overcast
Visibility: 10 miles , 16 km
Cloud details: Overcast 1300 ft
2018/11/17 20:53 KLAA 172053Z AUTO 05014KT 10SM OVC013 M02/M05 A3022 RMK AO2 SLP246 T10171050 55009